Time;durP1;ratioP1;P1;durP2;ratioP2;P2;SDS_P1;SDS_P2;PMS_P1;PMS_P2;Temp;Humidity;BMP_temperature;BMP_pressure;BME280_temperature;BME280_humidity;BME280_pressure;Samples;Min_cycle;Max_cycle;Signal;HPM_P1;HPM_P2
2021/08/20 00:01:55;;;;;;;3.58;2.75;;;18.60;99.90;;;;;;4990047;28;20675;-78
2021/08/20 00:04:22;;;;;;;3.22;2.60;;;18.50;99.90;;;;;;4996558;28;20252;-77
2021/08/20 00:06:48;;;;;;;3.25;2.50;;;18.60;99.90;;;;;;4996606;28;20209;-79
2021/08/20 00:09:16;;;;;;;3.80;3.40;;;18.60;99.90;;;;;;4996329;28;20520;-78
2021/08/20 00:11:43;;;;;;;3.45;2.45;;;18.60;99.90;;;;;;4997364;28;20716;-79
2021/08/20 00:14:10;;;;;;;2.80;2.53;;;18.60;99.90;;;;;;4997049;28;20197;-78
2021/08/20 00:16:37;;;;;;;2.83;2.50;;;18.60;99.90;;;;;;4996207;28;20202;-77
2021/08/20 00:19:04;;;;;;;2.65;2.45;;;18.60;99.90;;;;;;4995503;28;20206;-79
2021/08/20 00:21:30;;;;;;;3.28;2.97;;;18.50;99.90;;;;;;4996345;28;20197;-79
2021/08/20 00:23:57;;;;;;;3.60;2.55;;;18.60;99.90;;;;;;4984949;28;20209;-77
2021/08/20 00:26:25;;;;;;;2.63;2.42;;;18.60;99.90;;;;;;4976628;28;20197;-78
2021/08/20 00:28:52;;;;;;;3.15;2.78;;;18.60;99.90;;;;;;4977328;28;20202;-78
2021/08/20 00:31:19;;;;;;;4.40;2.63;;;18.60;99.90;;;;;;4994843;28;20261;-78
2021/08/20 00:33:45;;;;;;;3.22;2.78;;;18.60;99.90;;;;;;4995774;28;20201;-78
2021/08/20 00:36:12;;;;;;;3.33;3.03;;;18.60;99.90;;;;;;4996309;28;20205;-78
2021/08/20 00:38:39;;;;;;;3.13;2.53;;;18.50;99.90;;;;;;4993442;28;20637;-77
2021/08/20 00:41:05;;;;;;;3.10;2.80;;;18.50;99.90;;;;;;4995799;28;20602;-79
2021/08/20 00:43:34;;;;;;;4.32;3.00;;;18.50;99.90;;;;;;4995924;28;20251;-78
2021/08/20 00:46:03;;;;;;;4.32;3.05;;;18.50;99.90;;;;;;4995401;28;20197;-79
2021/08/20 00:48:30;;;;;;;3.17;2.88;;;18.50;99.90;;;;;;4994399;28;20271;-80
2021/08/20 00:51:03;;;;;;;2.80;2.45;;;18.50;99.90;;;;;;4994940;28;20650;-78
2021/08/20 00:53:31;;;;;;;2.65;2.45;;;18.50;99.90;;;;;;4979195;28;20686;-78
2021/08/20 00:55:59;;;;;;;3.47;2.90;;;18.50;99.90;;;;;;4992031;28;20233;-78
2021/08/20 00:58:26;;;;;;;3.47;3.15;;;18.40;99.90;;;;;;4992554;28;20201;-78
2021/08/20 01:00:57;;;;;;;3.25;2.95;;;18.50;99.90;;;;;;4994830;28;20197;-77
2021/08/20 01:03:25;;;;;;;3.10;2.88;;;18.40;99.90;;;;;;4995699;28;20205;-77
2021/08/20 01:05:53;;;;;;;4.45;3.03;;;18.50;99.90;;;;;;4996727;28;20213;-79
2021/08/20 01:08:22;;;;;;;3.25;2.70;;;18.40;99.90;;;;;;4994086;28;20728;-79
2021/08/20 01:10:49;;;;;;;2.70;2.10;;;18.40;99.90;;;;;;4993637;28;20229;-79
2021/08/20 01:13:16;;;;;;;2.88;2.65;;;18.50;99.90;;;;;;4994552;28;20229;-78
2021/08/20 01:15:43;;;;;;;2.33;2.13;;;18.50;99.90;;;;;;4995175;28;20205;-79
2021/08/20 01:18:11;;;;;;;2.63;2.33;;;18.40;99.90;;;;;;4990943;28;20205;-77
2021/08/20 01:20:38;;;;;;;3.67;2.70;;;18.50;99.90;;;;;;4995051;28;20665;-77
2021/08/20 01:23:08;;;;;;;3.60;3.30;;;18.40;99.90;;;;;;4989753;28;20197;-77
2021/08/20 01:25:36;;;;;;;3.25;2.95;;;18.40;99.90;;;;;;4995210;28;20569;-77
2021/08/20 01:28:08;;;;;;;2.95;2.70;;;18.40;99.90;;;;;;4994864;28;20237;-78
2021/08/20 01:30:34;;;;;;;3.95;3.55;;;18.40;99.90;;;;;;4990213;28;20202;-77
2021/08/20 01:33:01;;;;;;;3.15;2.85;;;18.40;99.90;;;;;;5000374;28;20245;-78
2021/08/20 01:35:28;;;;;;;2.55;2.35;;;18.40;99.90;;;;;;4995372;28;20206;-78
2021/08/20 01:37:55;;;;;;;2.35;2.15;;;18.40;99.90;;;;;;4994563;28;20209;-78
2021/08/20 01:40:22;;;;;;;2.90;2.55;;;18.40;99.90;;;;;;4998632;28;20685;-78
2021/08/20 01:42:50;;;;;;;3.30;3.00;;;18.30;99.90;;;;;;4999537;28;20205;-77
2021/08/20 01:45:17;;;;;;;3.30;3.00;;;18.40;99.90;;;;;;4998325;28;20655;-79
2021/08/20 01:47:44;;;;;;;2.47;2.15;;;18.40;99.90;;;;;;4981130;28;20206;-79
2021/08/20 01:50:12;;;;;;;2.80;2.45;;;18.30;99.90;;;;;;4985014;28;20192;-79
2021/08/20 01:52:39;;;;;;;3.15;2.20;;;18.30;99.90;;;;;;4984504;28;20225;-80
2021/08/20 01:55:08;;;;;;;2.60;2.40;;;18.30;99.90;;;;;;4988703;28;20213;-79
2021/08/20 01:57:36;;;;;;;2.90;2.30;;;18.30;99.90;;;;;;4999183;28;20198;-79
2021/08/20 02:00:06;;;;;;;2.47;2.28;;;18.30;99.90;;;;;;4998662;28;20216;-78
2021/08/20 02:02:32;;;;;;;3.08;2.78;;;18.20;99.90;;;;;;4997933;28;20193;-79
2021/08/20 02:04:59;;;;;;;2.50;2.30;;;18.30;99.90;;;;;;4998545;28;20224;-78
2021/08/20 02:07:26;;;;;;;3.20;2.13;;;18.20;99.90;;;;;;4997007;28;20198;-78
2021/08/20 02:09:53;;;;;;;2.50;2.30;;;18.30;99.90;;;;;;4997545;28;20198;-78
2021/08/20 02:12:20;;;;;;;2.20;2.00;;;18.30;99.90;;;;;;4987073;28;20844;-78
2021/08/20 02:14:47;;;;;;;2.70;2.20;;;18.30;99.90;;;;;;4998087;28;20205;-79
2021/08/20 02:17:15;;;;;;;2.50;2.13;;;18.20;99.90;;;;;;4998336;28;20198;-79
2021/08/20 02:19:42;;;;;;;2.47;2.22;;;18.30;99.90;;;;;;4998118;28;20205;-79
2021/08/20 02:22:08;;;;;;;4.85;2.72;;;18.30;99.90;;;;;;4997860;28;20206;-79
2021/08/20 02:24:35;;;;;;;2.60;2.15;;;18.20;99.90;;;;;;4997257;28;20658;-79
2021/08/20 02:27:02;;;;;;;2.97;2.17;;;18.20;99.90;;;;;;4998520;28;20206;-79
2021/08/20 02:29:28;;;;;;;7.18;2.88;;;18.20;99.90;;;;;;4998397;28;20205;-78
2021/08/20 02:31:55;;;;;;;3.08;2.65;;;18.20;99.90;;;;;;4994205;28;20214;-79
2021/08/20 02:34:23;;;;;;;3.92;2.63;;;18.20;99.90;;;;;;4992158;28;20657;-79
2021/08/20 02:36:50;;;;;;;2.30;2.10;;;18.20;99.90;;;;;;4996639;28;20256;-78
2021/08/20 02:39:16;;;;;;;2.70;2.10;;;18.30;99.90;;;;;;4997694;28;20226;-79
2021/08/20 02:41:43;;;;;;;3.28;2.25;;;18.20;99.90;;;;;;4978297;28;20194;-78
2021/08/20 02:44:10;;;;;;;3.17;2.80;;;18.20;99.90;;;;;;4988147;28;20621;-78
2021/08/20 02:46:38;;;;;;;3.28;2.97;;;18.20;99.90;;;;;;4996346;28;20201;-78
2021/08/20 02:49:05;;;;;;;4.10;2.70;;;18.20;99.90;;;;;;4997196;28;20225;-78
2021/08/20 02:51:33;;;;;;;4.20;2.72;;;18.10;99.90;;;;;;4996358;28;20217;-78
2021/08/20 02:54:00;;;;;;;3.20;2.65;;;18.10;99.90;;;;;;4997006;28;20201;-78
2021/08/20 02:56:27;;;;;;;2.40;2.20;;;18.20;99.90;;;;;;4997696;28;20197;-78
2021/08/20 02:58:53;;;;;;;3.47;2.45;;;18.20;99.90;;;;;;4998024;28;20202;-78
2021/08/20 03:01:20;;;;;;;3.90;2.30;;;18.20;99.90;;;;;;4998069;28;20197;-78
2021/08/20 03:03:48;;;;;;;3.25;2.90;;;18.10;99.90;;;;;;4988230;28;20202;-78
2021/08/20 03:06:15;;;;;;;2.25;2.05;;;18.10;99.90;;;;;;4979188;28;20206;-78
2021/08/20 03:08:43;;;;;;;2.75;2.40;;;18.10;99.90;;;;;;4990137;28;20716;-78
2021/08/20 03:11:10;;;;;;;3.08;2.70;;;18.10;99.90;;;;;;4996459;28;20206;-77
2021/08/20 03:13:36;;;;;;;2.58;2.38;;;18.10;99.90;;;;;;4984861;28;20233;-78
2021/08/20 03:16:04;;;;;;;2.10;1.90;;;18.10;99.90;;;;;;4997538;28;20201;-78
2021/08/20 03:18:30;;;;;;;2.50;2.28;;;18.10;99.90;;;;;;4997451;28;20346;-78
2021/08/20 03:20:57;;;;;;;6.28;2.47;;;18.10;99.90;;;;;;4996903;28;20197;-77
2021/08/20 03:23:24;;;;;;;3.20;2.58;;;18.10;99.90;;;;;;4996224;28;20241;-78
2021/08/20 03:25:52;;;;;;;2.70;2.22;;;18.10;99.90;;;;;;4996794;28;20201;-78
2021/08/20 03:28:18;;;;;;;2.90;2.28;;;18.10;99.90;;;;;;4996354;28;20252;-77
2021/08/20 03:30:45;;;;;;;4.00;2.88;;;18.10;99.90;;;;;;4996767;28;20193;-78
2021/08/20 03:33:12;;;;;;;2.58;2.35;;;18.10;99.90;;;;;;4990440;28;20288;-78
2021/08/20 03:35:39;;;;;;;2.55;2.35;;;18.10;99.90;;;;;;4989676;28;20207;-78
2021/08/20 03:38:05;;;;;;;4.35;2.70;;;18.10;99.90;;;;;;4997830;28;20256;-78
2021/08/20 03:40:32;;;;;;;2.97;2.67;;;18.10;99.90;;;;;;4997970;28;20586;-79
2021/08/20 03:43:00;;;;;;;2.92;2.60;;;18.10;99.90;;;;;;4990077;28;20202;-78
2021/08/20 03:45:27;;;;;;;2.53;2.33;;;18.10;99.90;;;;;;4978252;28;20259;-78
2021/08/20 03:47:53;;;;;;;2.67;2.45;;;18.00;99.90;;;;;;4979237;28;20198;-77
2021/08/20 03:50:20;;;;;;;2.97;2.50;;;18.10;99.90;;;;;;4990364;28;20208;-78
2021/08/20 03:52:47;;;;;;;3.55;2.78;;;18.10;99.90;;;;;;4991605;28;20749;-79
2021/08/20 03:55:14;;;;;;;2.72;2.45;;;18.10;99.90;;;;;;4997133;28;20197;-78
2021/08/20 03:57:40;;;;;;;4.32;2.88;;;18.00;99.90;;;;;;4996920;28;20245;-77
2021/08/20 04:00:11;;;;;;;2.53;2.25;;;18.00;99.90;;;;;;4996763;28;20197;-78
2021/08/20 04:02:37;;;;;;;2.40;2.15;;;18.10;99.90;;;;;;4985672;28;20205;-78
2021/08/20 04:05:05;;;;;;;2.70;2.15;;;18.10;99.90;;;;;;4989923;28;20229;-79
2021/08/20 04:07:31;;;;;;;2.70;2.30;;;18.10;99.90;;;;;;4995548;28;20677;-78
2021/08/20 04:09:58;;;;;;;3.50;2.40;;;18.00;99.90;;;;;;4981300;28;20190;-78
2021/08/20 04:12:25;;;;;;;2.72;2.33;;;18.00;99.90;;;;;;4995258;28;20221;-78
2021/08/20 04:14:51;;;;;;;3.00;2.60;;;18.00;99.90;;;;;;4996273;28;20228;-78
2021/08/20 04:17:19;;;;;;;3.35;2.83;;;18.00;99.90;;;;;;4996667;28;20194;-78
2021/08/20 04:19:46;;;;;;;2.50;2.30;;;18.00;99.90;;;;;;4996510;28;20317;-78
2021/08/20 04:22:13;;;;;;;4.93;2.92;;;18.00;99.90;;;;;;4995421;28;20248;-78
2021/08/20 04:24:41;;;;;;;3.70;2.83;;;18.00;99.90;;;;;;4988385;28;20566;-78
2021/08/20 04:27:08;;;;;;;3.17;2.88;;;18.00;99.90;;;;;;4997076;28;20531;-78
2021/08/20 04:29:35;;;;;;;3.15;2.60;;;18.00;99.90;;;;;;4995426;28;20238;-78
2021/08/20 04:32:02;;;;;;;2.35;2.05;;;18.00;99.90;;;;;;4995967;28;20759;-78
2021/08/20 04:34:30;;;;;;;3.05;2.65;;;17.90;99.90;;;;;;4996542;28;20197;-78
2021/08/20 04:36:56;;;;;;;3.30;2.45;;;17.90;99.90;;;;;;4994613;28;20606;-79
2021/08/20 04:39:23;;;;;;;3.22;2.47;;;17.90;99.90;;;;;;4996221;28;20248;-78
2021/08/20 04:41:50;;;;;;;3.08;2.33;;;18.00;99.90;;;;;;4996571;28;20252;-78
2021/08/20 04:44:16;;;;;;;2.60;2.40;;;18.00;99.90;;;;;;4996066;28;20197;-78
2021/08/20 04:46:43;;;;;;;3.22;2.50;;;18.00;99.90;;;;;;4995181;28;20224;-78
2021/08/20 04:49:10;;;;;;;2.70;2.42;;;17.90;99.90;;;;;;4992281;28;20302;-78
2021/08/20 04:51:38;;;;;;;4.10;2.75;;;18.00;99.90;;;;;;4995749;28;20201;-78
2021/08/20 04:54:05;;;;;;;3.65;3.35;;;18.00;99.90;;;;;;4995226;28;20558;-77
2021/08/20 04:56:32;;;;;;;2.97;2.67;;;17.90;99.90;;;;;;4995965;28;20645;-79
2021/08/20 04:58:59;;;;;;;3.05;2.65;;;17.90;99.90;;;;;;4976486;28;20217;-79
2021/08/20 05:01:26;;;;;;;2.40;2.20;;;17.90;99.90;;;;;;4988381;28;20296;-78
2021/08/20 05:03:53;;;;;;;2.70;2.50;;;17.90;99.90;;;;;;4995250;28;20193;-77
2021/08/20 05:06:19;;;;;;;4.93;3.75;;;17.90;99.90;;;;;;4989780;28;20273;-78
2021/08/20 05:08:47;;;;;;;2.88;2.30;;;17.90;99.90;;;;;;4984515;28;20401;-77
2021/08/20 05:11:14;;;;;;;5.75;3.47;;;17.90;99.90;;;;;;4975272;28;20202;-78
2021/08/20 05:13:41;;;;;;;4.07;3.33;;;17.90;99.90;;;;;;4988901;28;20217;-77
2021/08/20 05:16:07;;;;;;;3.33;2.83;;;17.90;99.90;;;;;;4997337;28;20201;-78
2021/08/20 05:18:34;;;;;;;3.05;2.10;;;17.90;99.90;;;;;;4998394;28;20224;-78
2021/08/20 05:21:01;;;;;;;4.30;3.20;;;17.90;99.90;;;;;;4998571;28;20201;-78
2021/08/20 05:23:28;;;;;;;2.80;2.60;;;17.90;99.90;;;;;;4994305;28;20650;-78
2021/08/20 05:25:56;;;;;;;3.35;2.90;;;17.90;99.90;;;;;;4993586;28;20617;-78
2021/08/20 05:28:22;;;;;;;3.53;2.90;;;17.90;99.90;;;;;;4996859;28;20201;-76
2021/08/20 05:30:50;;;;;;;3.20;2.35;;;17.90;99.90;;;;;;4996928;28;20251;-76
2021/08/20 05:33:16;;;;;;;3.20;2.75;;;17.90;99.90;;;;;;4995830;28;20272;-76
2021/08/20 05:35:46;;;;;;;2.65;2.40;;;17.90;99.90;;;;;;4994660;28;20225;-77
2021/08/20 05:38:13;;;;;;;4.32;2.63;;;17.90;99.90;;;;;;4994057;28;20206;-77
2021/08/20 05:40:40;;;;;;;6.50;5.20;;;17.90;99.90;;;;;;4998566;28;20243;-77
2021/08/20 05:43:08;;;;;;;4.78;4.32;;;17.90;99.90;;;;;;4986811;28;20201;-78
2021/08/20 05:45:37;;;;;;;7.38;4.57;;;18.00;99.90;;;;;;4992632;28;20201;-77
2021/08/20 05:48:05;;;;;;;6.10;5.10;;;18.00;99.90;;;;;;4986531;28;20213;-77
2021/08/20 05:50:32;;;;;;;5.65;4.20;;;18.00;99.90;;;;;;4997865;28;20252;-77
2021/08/20 05:52:58;;;;;;;5.80;3.20;;;18.10;99.90;;;;;;4984001;28;20216;-77
2021/08/20 05:55:25;;;;;;;3.28;2.72;;;18.20;99.90;;;;;;4993443;28;20287;-77
2021/08/20 05:57:52;;;;;;;3.03;2.72;;;18.50;99.90;;;;;;4995105;28;20206;-78
2021/08/20 06:00:20;;;;;;;2.80;2.60;;;18.60;99.90;;;;;;4999431;28;20260;-78
2021/08/20 06:02:47;;;;;;;3.30;3.00;;;18.80;99.90;;;;;;4983157;28;20205;-78
2021/08/20 06:05:14;;;;;;;4.15;2.75;;;19.00;99.90;;;;;;4997227;28;20208;-78
2021/08/20 06:07:41;;;;;;;3.50;3.20;;;19.10;99.90;;;;;;4998991;28;20210;-78
2021/08/20 06:10:09;;;;;;;3.20;2.72;;;19.20;99.90;;;;;;5000954;28;20665;-78
2021/08/20 06:12:36;;;;;;;3.40;3.10;;;19.30;99.90;;;;;;5000035;28;20582;-79
2021/08/20 06:15:04;;;;;;;5.80;2.50;;;19.50;99.90;;;;;;4999757;28;20209;-79
2021/08/20 06:17:32;;;;;;;2.75;2.55;;;19.60;99.90;;;;;;4988594;28;20205;-77
2021/08/20 06:19:58;;;;;;;5.30;3.08;;;19.70;99.90;;;;;;4999250;28;20671;-78
2021/08/20 06:22:25;;;;;;;3.45;2.90;;;19.70;99.90;;;;;;5000007;28;20226;-78
2021/08/20 06:24:52;;;;;;;3.83;3.00;;;19.70;99.90;;;;;;4998192;28;20252;-78
2021/08/20 06:27:18;;;;;;;3.45;2.88;;;19.70;99.90;;;;;;4994525;28;20204;-78
2021/08/20 06:29:45;;;;;;;4.00;3.13;;;19.60;99.90;;;;;;4999156;28;20201;-78
2021/08/20 06:32:12;;;;;;;4.35;3.15;;;19.50;99.90;;;;;;4998274;28;20841;-78
2021/08/20 06:34:40;;;;;;;3.92;2.83;;;19.50;99.90;;;;;;4990755;28;20208;-78
2021/08/20 06:37:07;;;;;;;3.40;3.10;;;19.50;99.90;;;;;;5001054;28;20205;-79
2021/08/20 06:39:34;;;;;;;4.10;3.65;;;19.50;99.90;;;;;;4999520;28;20601;-78
2021/08/20 06:42:01;;;;;;;5.28;3.90;;;19.70;99.90;;;;;;4999215;28;20213;-78
2021/08/20 06:44:28;;;;;;;3.25;2.95;;;19.80;99.90;;;;;;4998572;28;20205;-78
2021/08/20 06:46:55;;;;;;;5.28;3.90;;;20.00;99.90;;;;;;4998723;28;20221;-78
2021/08/20 06:49:22;;;;;;;3.95;3.20;;;20.10;99.90;;;;;;4996634;28;20209;-78
2021/08/20 06:51:50;;;;;;;5.38;3.55;;;20.20;99.90;;;;;;4999617;28;20208;-78
2021/08/20 06:54:16;;;;;;;3.75;3.45;;;20.20;99.90;;;;;;4987600;28;20594;-78
2021/08/20 06:56:43;;;;;;;3.90;3.50;;;20.30;99.90;;;;;;4994203;28;20201;-78
2021/08/20 06:59:10;;;;;;;3.80;3.20;;;20.30;99.90;;;;;;4997148;28;20202;-77
2021/08/20 07:01:37;;;;;;;5.38;3.92;;;20.20;99.90;;;;;;4990089;28;20676;-78
2021/08/20 07:04:03;;;;;;;3.95;3.33;;;20.10;99.90;;;;;;4986820;28;20202;-77
2021/08/20 07:06:30;;;;;;;5.13;4.22;;;19.90;99.90;;;;;;4988591;28;20204;-77
2021/08/20 07:08:58;;;;;;;7.45;4.55;;;19.80;99.90;;;;;;4987812;28;20281;-78
2021/08/20 07:11:25;;;;;;;12.63;3.88;;;19.80;99.90;;;;;;4996216;28;20212;-78
2021/08/20 07:13:54;;;;;;;4.68;4.28;;;19.70;99.90;;;;;;4994802;28;20225;-81
2021/08/20 07:16:20;;;;;;;7.97;4.00;;;19.90;99.90;;;;;;4983342;28;20198;-82
2021/08/20 07:18:47;;;;;;;5.65;4.82;;;20.00;99.90;;;;;;4981213;28;20216;-81
2021/08/20 07:21:14;;;;;;;4.47;3.67;;;20.10;99.90;;;;;;4998082;28;20247;-82
2021/08/20 07:23:40;;;;;;;4.78;3.80;;;20.00;99.90;;;;;;4987384;28;20253;-82
2021/08/20 07:26:08;;;;;;;7.72;4.75;;;19.90;99.90;;;;;;4983532;28;20602;-81
2021/08/20 07:28:35;;;;;;;5.05;4.13;;;19.80;99.90;;;;;;4997489;28;20201;-81
2021/08/20 07:31:03;;;;;;;5.75;4.68;;;19.80;99.90;;;;;;4996634;28;20712;-81
2021/08/20 07:33:33;;;;;;;5.63;4.63;;;19.70;99.90;;;;;;4995679;28;20218;-79
2021/08/20 07:36:00;;;;;;;8.45;4.82;;;19.70;99.90;;;;;;4996899;28;20622;-77
2021/08/20 07:38:29;;;;;;;6.15;5.30;;;19.70;99.90;;;;;;4990006;28;20238;-82
2021/08/20 07:40:56;;;;;;;5.80;4.75;;;19.60;99.90;;;;;;4991812;28;20201;-82
2021/08/20 07:43:24;;;;;;;7.82;5.05;;;19.60;99.90;;;;;;4993605;28;20715;-82
2021/08/20 07:45:51;;;;;;;6.00;4.80;;;19.50;99.90;;;;;;4982294;28;20218;-88
2021/08/20 07:48:18;;;;;;;6.45;5.20;;;19.60;99.90;;;;;;5013395;28;20208;-86
2021/08/20 07:50:47;;;;;;;10.75;7.20;;;19.70;99.90;;;;;;4994240;28;20209;-87
2021/08/20 07:53:15;;;;;;;5.95;5.00;;;19.90;99.90;;;;;;4994804;28;20693;-87
2021/08/20 07:55:44;;;;;;;7.25;4.32;;;20.10;99.90;;;;;;4996919;28;20692;-88
2021/08/20 07:58:11;;;;;;;6.53;5.45;;;20.10;99.90;;;;;;4995413;28;20185;-87
2021/08/20 08:00:39;;;;;;;9.05;7.10;;;20.50;99.90;;;;;;4997087;28;20654;-87
2021/08/20 08:03:06;;;;;;;6.88;5.45;;;20.10;99.90;;;;;;5001477;28;20535;-87
2021/08/20 08:05:33;;;;;;;10.07;6.55;;;20.00;99.90;;;;;;4997090;28;20206;-84
2021/08/20 08:08:00;;;;;;;6.10;5.40;;;20.00;99.90;;;;;;4996753;28;20193;-88
2021/08/20 08:10:27;;;;;;;6.30;5.68;;;19.90;99.90;;;;;;4991810;28;20201;-82
2021/08/20 08:12:54;;;;;;;10.73;9.10;;;19.80;99.90;;;;;;4992520;28;20637;-80
2021/08/20 08:15:21;;;;;;;10.15;6.90;;;19.70;99.90;;;;;;4995086;28;20239;-80
2021/08/20 08:17:50;;;;;;;10.48;6.88;;;19.70;99.90;;;;;;4994349;28;20227;-79
2021/08/20 08:20:18;;;;;;;8.65;7.18;;;19.70;99.90;;;;;;4982729;28;20202;-81
2021/08/20 08:22:45;;;;;;;10.35;7.93;;;19.70;99.90;;;;;;4994691;28;20260;-80
2021/08/20 08:25:13;;;;;;;9.70;8.32;;;19.70;99.90;;;;;;4993477;28;20650;-81
2021/08/20 08:27:50;;;;;;;8.63;7.70;;;19.70;99.90;;;;;;4993043;28;20205;-81
2021/08/20 08:30:18;;;;;;;8.63;7.70;;;19.70;99.90;;;;;;4993260;28;20728;-81
2021/08/20 08:32:44;;;;;;;9.05;7.45;;;19.70;99.90;;;;;;4994527;28;20205;-80
2021/08/20 08:35:13;;;;;;;12.30;9.20;;;19.70;99.90;;;;;;4993766;28;20685;-79
2021/08/20 08:37:40;;;;;;;11.85;8.57;;;19.70;99.90;;;;;;4993903;28;20208;-82
2021/08/20 08:40:07;;;;;;;11.60;9.77;;;19.80;99.90;;;;;;4994063;28;20205;-81
2021/08/20 08:42:34;;;;;;;12.07;8.80;;;19.80;99.90;;;;;;4994359;28;20578;-82
2021/08/20 08:45:02;;;;;;;10.40;8.23;;;19.80;99.90;;;;;;4992511;28;20205;-82
2021/08/20 08:47:34;;;;;;;12.63;10.18;;;19.80;99.90;;;;;;4994172;28;20201;-82
2021/08/20 08:50:07;;;;;;;10.13;9.02;;;19.70;99.90;;;;;;4985448;28;20292;-79
2021/08/20 08:52:36;;;;;;;11.60;9.40;;;19.70;99.90;;;;;;4994025;28;20554;-81
2021/08/20 08:55:08;;;;;;;10.40;9.30;;;19.80;99.90;;;;;;4983589;28;20229;-81
2021/08/20 08:57:35;;;;;;;10.98;9.90;;;19.80;99.90;;;;;;4986332;28;20205;-82
2021/08/20 09:00:02;;;;;;;13.40;8.80;;;19.80;99.90;;;;;;4992264;28;20264;-81
2021/08/20 09:02:31;;;;;;;11.63;10.43;;;19.80;99.90;;;;;;4990427;28;20201;-81
2021/08/20 09:05:00;;;;;;;13.00;9.75;;;19.80;99.90;;;;;;4994367;28;20260;-81
2021/08/20 09:07:29;;;;;;;11.10;10.00;;;19.90;99.90;;;;;;4993794;28;20259;-81
2021/08/20 09:10:18;;;;;;;14.10;10.30;;;20.00;99.90;;;;;;4979071;28;20249;-81
2021/08/20 09:12:56;;;;;;;14.82;10.93;;;20.00;99.90;;;;;;4991612;28;20230;-81
2021/08/20 09:15:25;;;;;;;11.77;10.57;;;20.00;99.90;;;;;;4992292;28;20275;-81
2021/08/20 09:17:54;;;;;;;9.80;8.80;;;20.10;99.90;;;;;;4977068;28;20225;-81
2021/08/20 09:20:24;;;;;;;10.50;9.40;;;20.20;99.90;;;;;;4988734;28;20265;-80
2021/08/20 09:22:52;;;;;;;10.43;9.43;;;20.40;99.90;;;;;;4991889;28;20216;-80
2021/08/20 09:25:35;;;;;;;11.50;9.75;;;20.40;99.90;;;;;;4998137;28;20288;-80
2021/08/20 09:28:17;;;;;;;12.98;11.68;;;20.40;99.90;;;;;;4996225;28;20202;-80
2021/08/20 09:30:58;;;;;;;11.77;10.57;;;20.50;99.90;;;;;;4996465;28;20542;-80
2021/08/20 09:33:26;;;;;;;10.90;9.90;;;20.60;99.90;;;;;;4976784;28;20210;-80
2021/08/20 09:35:57;;;;;;;11.10;9.95;;;20.70;99.90;;;;;;4993676;28;20208;-79
2021/08/20 09:38:24;;;;;;;11.63;10.43;;;20.80;99.90;;;;;;4978648;28;20252;-81
2021/08/20 09:40:56;;;;;;;10.95;9.88;;;20.90;99.90;;;;;;4977753;28;20198;-81
2021/08/20 09:43:27;;;;;;;12.98;11.55;;;21.00;99.90;;;;;;4992540;28;20197;-81
2021/08/20 09:45:58;;;;;;;13.90;11.73;;;21.00;99.90;;;;;;4990243;28;20205;-81
2021/08/20 09:48:46;;;;;;;12.23;10.98;;;21.10;99.90;;;;;;4997061;28;20190;-81
2021/08/20 09:51:37;;;;;;;11.90;10.70;;;21.10;99.90;;;;;;4995224;28;20240;-81
2021/08/20 09:54:06;;;;;;;11.38;10.27;;;21.00;99.90;;;;;;4994237;28;20232;-81
2021/08/20 09:56:36;;;;;;;12.68;11.38;;;21.00;99.90;;;;;;4998209;28;20216;-80
2021/08/20 09:59:05;;;;;;;24.63;19.23;;;20.90;99.90;;;;;;4997539;28;20216;-78
2021/08/20 10:01:33;;;;;;;15.65;13.43;;;20.80;99.90;;;;;;4981249;28;20197;-79
2021/08/20 10:04:01;;;;;;;14.20;12.70;;;20.70;99.90;;;;;;4997993;28;20647;-82
2021/08/20 10:06:31;;;;;;;15.70;14.10;;;20.80;99.90;;;;;;4997723;28;20256;-79
2021/08/20 10:09:01;;;;;;;14.60;13.13;;;20.70;99.90;;;;;;4996272;28;20265;-79
2021/08/20 10:11:29;;;;;;;14.70;13.05;;;20.80;99.90;;;;;;4998536;28;20193;-80
2021/08/20 10:14:01;;;;;;;15.18;13.20;;;20.80;99.90;;;;;;4997431;28;20266;-80
2021/08/20 10:16:30;;;;;;;13.98;12.57;;;20.90;99.90;;;;;;4989159;28;20278;-80
2021/08/20 10:18:57;;;;;;;14.95;12.13;;;20.90;99.90;;;;;;4987023;28;20197;-79
2021/08/20 10:21:23;;;;;;;14.63;13.23;;;21.00;99.90;;;;;;4997663;28;20209;-80
2021/08/20 10:23:50;;;;;;;13.73;12.32;;;21.00;99.90;;;;;;4991007;28;20685;-80
2021/08/20 10:26:18;;;;;;;14.07;12.27;;;21.00;99.90;;;;;;4999218;28;20205;-80
2021/08/20 10:28:45;;;;;;;13.35;11.95;;;21.00;99.90;;;;;;4999102;28;20208;-79
2021/08/20 10:31:15;;;;;;;12.50;10.68;;;21.10;99.90;;;;;;4997793;28;20241;-81
2021/08/20 10:33:41;;;;;;;11.75;10.55;;;21.10;99.90;;;;;;4986005;28;20206;-80
2021/08/20 10:36:09;;;;;;;12.13;10.93;;;21.10;99.90;;;;;;4999238;28;20551;-79
2021/08/20 10:38:42;;;;;;;13.40;10.23;;;21.10;99.90;;;;;;4999034;28;20206;-80
2021/08/20 10:41:12;;;;;;;11.13;9.93;;;21.20;99.90;;;;;;4999431;28;20202;-80
2021/08/20 10:43:54;;;;;;;11.88;10.77;;;21.20;99.90;;;;;;4998271;28;20206;-80
2021/08/20 10:47:07;;;;;;;10.88;9.60;;;21.30;99.90;;;;;;4992481;28;20210;-81
2021/08/20 10:49:44;;;;;;;11.68;10.68;;;21.30;99.90;;;;;;4980563;28;20225;-80
2021/08/20 10:52:28;;;;;;;11.98;10.85;;;21.30;99.90;;;;;;4978962;28;20206;-79
2021/08/20 10:55:11;;;;;;;10.37;9.43;;;21.40;99.90;;;;;;4995629;28;20225;-80
2021/08/20 10:58:10;;;;;;;10.38;9.27;;;21.40;99.90;;;;;;4993028;28;20465;-79
2021/08/20 11:00:39;;;;;;;12.35;11.13;;;21.40;99.90;;;;;;4988709;28;20311;-80
2021/08/20 11:03:08;;;;;;;11.85;10.15;;;21.50;99.90;;;;;;4997738;28;20201;-79
2021/08/20 11:05:41;;;;;;;10.77;9.60;;;21.50;99.90;;;;;;4997011;28;20198;-80
2021/08/20 11:08:38;;;;;;;11.02;10.10;;;21.50;99.90;;;;;;4996382;28;20465;-80
2021/08/20 11:11:06;;;;;;;11.60;10.57;;;21.50;99.90;;;;;;4985680;28;20670;-78
2021/08/20 11:13:33;;;;;;;10.87;9.80;;;21.50;99.90;;;;;;4980057;28;20233;-79
2021/08/20 11:16:02;;;;;;;9.90;8.90;;;21.50;99.90;;;;;;4997360;28;20989;-80
2021/08/20 11:18:46;;;;;;;9.00;8.15;;;21.50;99.90;;;;;;4996558;28;20288;-80
2021/08/20 11:21:44;;;;;;;9.95;9.05;;;21.50;99.90;;;;;;4995202;28;20272;-79
2021/08/20 11:24:17;;;;;;;10.18;9.10;;;21.50;99.90;;;;;;4990497;28;20198;-80
2021/08/20 11:26:44;;;;;;;9.88;8.98;;;21.50;99.90;;;;;;4995392;28;20198;-80
2021/08/20 11:29:13;;;;;;;9.00;8.13;;;21.50;99.90;;;;;;4995088;28;20202;-80
2021/08/20 11:31:39;;;;;;;9.35;8.40;;;21.60;99.90;;;;;;4995331;28;20201;-80
2021/08/20 11:34:06;;;;;;;10.88;9.77;;;21.60;99.90;;;;;;4983986;28;20284;-80
2021/08/20 11:36:33;;;;;;;10.10;9.13;;;21.60;99.90;;;;;;4996124;28;20555;-79
2021/08/20 11:39:02;;;;;;;10.63;8.87;;;21.60;99.90;;;;;;4983347;28;20698;-79
2021/08/20 11:41:36;;;;;;;9.48;8.25;;;21.60;99.90;;;;;;4989724;28;20468;-80
2021/08/20 11:44:05;;;;;;;9.63;8.63;;;21.60;99.90;;;;;;4993965;28;20200;-80
2021/08/20 11:46:37;;;;;;;8.60;7.90;;;21.60;99.90;;;;;;4977519;28;20217;-79
2021/08/20 11:49:04;;;;;;;8.68;7.88;;;21.70;99.90;;;;;;4992794;28;20555;-80
2021/08/20 11:51:35;;;;;;;9.32;8.32;;;21.70;99.90;;;;;;4996264;28;20210;-80
2021/08/20 11:54:06;;;;;;;9.20;8.30;;;21.70;99.90;;;;;;4995480;28;20197;-80
2021/08/20 11:56:33;;;;;;;9.13;8.43;;;21.70;99.90;;;;;;4994971;28;20472;-79
2021/08/20 11:59:08;;;;;;;9.73;8.80;;;21.80;99.90;;;;;;4994535;28;20208;-80
2021/08/20 12:01:37;;;;;;;8.70;8.00;;;21.70;99.90;;;;;;4995532;28;20471;-79
2021/08/20 12:04:05;;;;;;;8.75;7.95;;;21.80;99.90;;;;;;4977016;28;20457;-81
2021/08/20 12:06:33;;;;;;;8.88;8.10;;;21.70;99.90;;;;;;4986607;28;20279;-79
2021/08/20 12:09:10;;;;;;;8.00;7.30;;;21.80;99.90;;;;;;4996552;28;20213;-78
2021/08/20 12:11:39;;;;;;;9.53;8.63;;;21.80;99.90;;;;;;4993543;28;20225;-79
2021/08/20 12:14:05;;;;;;;7.53;6.83;;;21.80;99.90;;;;;;4996044;28;20541;-79
2021/08/20 12:16:39;;;;;;;8.13;7.40;;;21.80;99.90;;;;;;4995311;28;20960;-78
2021/08/20 12:19:14;;;;;;;8.27;7.57;;;21.70;99.90;;;;;;4995460;28;20240;-80
2021/08/20 12:21:44;;;;;;;8.90;8.07;;;21.70;99.90;;;;;;4994844;28;20475;-79
2021/08/20 12:24:13;;;;;;;8.18;7.47;;;21.70;99.90;;;;;;4994271;28;21011;-79
2021/08/20 12:26:40;;;;;;;8.98;8.18;;;21.70;99.90;;;;;;4990686;28;20532;-79
2021/08/20 12:29:17;;;;;;;7.28;6.68;;;21.70;99.90;;;;;;4994555;28;20202;-79
2021/08/20 12:32:00;;;;;;;7.40;6.80;;;21.70;99.90;;;;;;4993534;28;20213;-79
2021/08/20 12:34:29;;;;;;;8.40;7.10;;;21.70;99.90;;;;;;4995539;28;20991;-79
2021/08/20 12:36:56;;;;;;;8.05;7.28;;;21.70;99.90;;;;;;4996068;28;20845;-80
2021/08/20 12:39:34;;;;;;;7.22;6.53;;;21.70;99.90;;;;;;4987833;28;20625;-79
2021/08/20 12:42:20;;;;;;;8.00;7.20;;;21.70;99.90;;;;;;4987219;28;20209;-79
2021/08/20 12:44:47;;;;;;;8.20;7.60;;;21.70;99.90;;;;;;4992587;28;20226;-78
2021/08/20 12:47:14;;;;;;;6.97;6.38;;;21.70;99.90;;;;;;4995034;28;20197;-80
2021/08/20 12:49:58;;;;;;;7.50;6.80;;;21.70;99.90;;;;;;4994569;28;20205;-80
2021/08/20 12:52:26;;;;;;;7.25;6.57;;;21.70;99.90;;;;;;4993917;28;20194;-79